Details From LOWW - Wien Schwechat
To LZKZ - Kosice
Flight Number -
Tags Decoded
Created
Modified
Stats Distance 190 nm / 352 km
Max Altitude 0 ft / 0 m
Waypoints 7
Social Downloads 1
Likes 0
Share VATSIM

Download

Looking for another format? Having issues loading an existing format? Contact us
Advertisement - Login to hide

Notes

Decoded

Route

LOWW ABLOM LEDRI NIT TAKOS DEDIS LZKZ

ID Type Via Altitude Latitude Longitude Leg Dist Tot Dist Heading (true) Name
O LOWW APT - 0 ft / 0 m 48.11978˚ 16.57818˚ - 0 nm - -
ABLOM FIX - 0 ft / 0 m 48.06757˚ 17.08770˚ 20 nm 20 nm 99° / 99° -
LEDRI FIX - 0 ft / 0 m 48.09089˚ 17.18285˚ 4 nm 24 nm 70° / 70° -
NIT VOR - 0 ft / 0 m 48.29044˚ 18.05064˚ 36 nm 61 nm 71° / 71° NITRA VOR-DME
TAKOS FIX - 0 ft / 0 m 48.58250˚ 20.26667˚ 90 nm 151 nm 78° / 80° -
DEDIS FIX - 0 ft / 0 m 48.63059˚ 20.72546˚ 18 nm 169 nm 81° / 81° -
O LZKZ APT - 0 ft / 0 m 48.64945˚ 21.23641˚ 20 nm 190 nm 87° / 87° -

Altitude Profile

Advertisement - Login to hide

Weather


0- 5 10 15 20 25 30 35+ Temperature / ° C

Clouds and Precipitation
Forecast for 2017-12-17 06:00 UTC. Updated an hour ago

Ground ~20,000 ft ~40,000 ft Winds

LOWW

Details ICAO LOWW (VIE)
Name Wien Schwechat
Region Austria
Timezone Europe/Vienna (UTC+1.0)
Stats Elevation 600 ft / 183 m (AMSL)
Location 48.110068° 16.569637°
Runways 2
Magnetic Variation 4.257° E

METAR

LOWW 170220Z 29008KT CAVOK 02/M01 Q1016 NOSIG

Decode

TAF

TAF LOWW 162315Z 1700/1806 29010KT 9999 FEW020 BKN040 TX04/1712Z TNM00/1806Z TEMPO 1709/1715 32015KT TEMPO 1720/1806 30015G25KT 3000 SHSN VV005 PROB30 TEMPO 1720/1800 FEW020CB BKN025

Decode

Departure Runways

ID Width Length Bearing (true) Bearing (mag) Surface Threshold Offset Overrun Length
11 148 ft / 45 m 11,457 ft / 3,492 m 115.99° 111.73° Asphalt 0 ft / 0 m 0 ft / 0 m
16 148 ft / 45 m 11,811 ft / 3,600 m 164.23° 159.97° Asphalt 0 ft / 0 m 33 ft / 10 m
29 148 ft / 45 m 11,457 ft / 3,492 m 296.03° 291.77° Asphalt 0 ft / 0 m 0 ft / 0 m
34 148 ft / 45 m 11,811 ft / 3,600 m 344.24° 339.98° Asphalt 0 ft / 0 m 0 ft / 0 m

LZKZ

Details ICAO LZKZ (KSC)
Name KOSICE
Region Slovakia
Timezone Europe/Bratislava (UTC+1.0)
Stats Elevation 755 ft / 230 m (AMSL)
Location 48.663030° 21.241155°
Runways 1
Magnetic Variation 5.332° E

METAR

LZKZ 170230Z 08002KT 9999 BKN044 M01/M02 Q1014

Decode

TAF

Not found

Destination Runways

ID Width Length Bearing (true) Bearing (mag) Surface Threshold Offset Overrun Length
01 148 ft / 45 m 10,174 ft / 3,101 m 13.00° 7.67° Asphalt 0 ft / 0 m 0 ft / 0 m
19 148 ft / 45 m 10,174 ft / 3,101 m 193.00° 187.67° Asphalt 0 ft / 0 m 0 ft / 0 m

Approach Navaids

Runway Type Ident Frequency Range Bearing (true) Bearing (mag) Slope Elevation
01 Localiser KE 109.50 MHz 18 nm / 33 km 13.00° 7.67° - 739 ft / 225 m (AMSL)
01 Glidescope KE 109.50 MHz 10 nm / 19 km 13.00° 7.67° 3.00° 739 ft / 225 m (AMSL)

Popular Alternatives